sensor_id;sensor_type;location;lat;lon;timestamp;temperature;humidity
40454;DHT22;26160;51.858;4.398;2023-05-21T00:00:30;14.00;99.90
40454;DHT22;26160;51.858;4.398;2023-05-21T00:02:59;14.00;99.90
40454;DHT22;26160;51.858;4.398;2023-05-21T00:05:25;14.00;99.90
40454;DHT22;26160;51.858;4.398;2023-05-21T00:07:51;14.00;99.90
40454;DHT22;26160;51.858;4.398;2023-05-21T00:10:19;13.90;99.90
40454;DHT22;26160;51.858;4.398;2023-05-21T00:12:46;13.80;99.90
40454;DHT22;26160;51.858;4.398;2023-05-21T00:15:13;13.90;99.90
40454;DHT22;26160;51.858;4.398;2023-05-21T00:17:39;13.80;99.90
40454;DHT22;26160;51.858;4.398;2023-05-21T00:20:06;13.80;99.90
40454;DHT22;26160;51.858;4.398;2023-05-21T00:22:33;13.80;99.90
40454;DHT22;26160;51.858;4.398;2023-05-21T00:25:07;13.80;99.90
40454;DHT22;26160;51.858;4.398;2023-05-21T00:27:33;13.80;99.90
40454;DHT22;26160;51.858;4.398;2023-05-21T00:30:00;13.80;99.90
40454;DHT22;26160;51.858;4.398;2023-05-21T00:32:28;13.70;99.90
40454;DHT22;26160;51.858;4.398;2023-05-21T00:34:54;13.70;99.90
40454;DHT22;26160;51.858;4.398;2023-05-21T00:37:21;13.70;99.90
40454;DHT22;26160;51.858;4.398;2023-05-21T00:39:49;13.70;99.90
40454;DHT22;26160;51.858;4.398;2023-05-21T00:42:16;13.70;99.90
40454;DHT22;26160;51.858;4.398;2023-05-21T00:44:43;13.70;99.90
40454;DHT22;26160;51.858;4.398;2023-05-21T00:47:11;13.70;99.90
40454;DHT22;26160;51.858;4.398;2023-05-21T00:49:38;13.70;99.90
40454;DHT22;26160;51.858;4.398;2023-05-21T05:32:49;14.70;99.90
40454;DHT22;26160;51.858;4.398;2023-05-21T05:35:16;14.70;99.90
40454;DHT22;26160;51.858;4.398;2023-05-21T05:37:42;14.80;99.90
40454;DHT22;26160;51.858;4.398;2023-05-21T05:40:08;14.70;99.90
40454;DHT22;26160;51.858;4.398;2023-05-21T05:42:34;14.80;99.90
40454;DHT22;26160;51.858;4.398;2023-05-21T05:45:01;14.80;99.90
40454;DHT22;26160;51.858;4.398;2023-05-21T05:47:27;14.80;99.90
40454;DHT22;26160;51.858;4.398;2023-05-21T05:49:53;14.90;99.90
40454;DHT22;26160;51.858;4.398;2023-05-21T05:52:19;14.90;99.90
40454;DHT22;26160;51.858;4.398;2023-05-21T05:54:46;15.00;99.90
40454;DHT22;26160;51.858;4.398;2023-05-21T05:57:12;15.00;99.90
40454;DHT22;26160;51.858;4.398;2023-05-21T05:59:38;15.10;99.90
40454;DHT22;26160;51.858;4.398;2023-05-21T06:02:05;15.10;99.90
40454;DHT22;26160;51.858;4.398;2023-05-21T06:04:31;15.10;99.90
40454;DHT22;26160;51.858;4.398;2023-05-21T06:06:58;15.20;99.90
40454;DHT22;26160;51.858;4.398;2023-05-21T06:09:25;15.20;99.90
40454;DHT22;26160;51.858;4.398;2023-05-21T06:11:51;15.30;99.90
40454;DHT22;26160;51.858;4.398;2023-05-21T06:14:17;15.40;99.90
40454;DHT22;26160;51.858;4.398;2023-05-21T06:16:43;15.50;99.90
40454;DHT22;26160;51.858;4.398;2023-05-21T06:19:10;15.60;99.90
40454;DHT22;26160;51.858;4.398;2023-05-21T06:21:36;15.80;99.90
40454;DHT22;26160;51.858;4.398;2023-05-21T06:24:02;15.80;99.90
40454;DHT22;26160;51.858;4.398;2023-05-21T06:26:28;15.90;99.90
40454;DHT22;26160;51.858;4.398;2023-05-21T06:28:54;16.10;99.90
40454;DHT22;26160;51.858;4.398;2023-05-21T06:31:21;16.20;99.90
40454;DHT22;26160;51.858;4.398;2023-05-21T06:33:48;16.30;99.90
40454;DHT22;26160;51.858;4.398;2023-05-21T06:36:14;16.40;99.90
40454;DHT22;26160;51.858;4.398;2023-05-21T06:38:41;16.60;99.90
40454;DHT22;26160;51.858;4.398;2023-05-21T06:41:07;16.70;99.90
40454;DHT22;26160;51.858;4.398;2023-05-21T06:43:33;16.80;99.90
40454;DHT22;26160;51.858;4.398;2023-05-21T06:46:00;16.70;99.90
40454;DHT22;26160;51.858;4.398;2023-05-21T06:48:26;16.80;99.90
40454;DHT22;26160;51.858;4.398;2023-05-21T06:50:52;17.00;99.90
40454;DHT22;26160;51.858;4.398;2023-05-21T06:53:18;17.20;99.90
40454;DHT22;26160;51.858;4.398;2023-05-21T06:55:45;17.50;99.90
40454;DHT22;26160;51.858;4.398;2023-05-21T06:58:16;17.50;99.90
40454;DHT22;26160;51.858;4.398;2023-05-21T07:00:43;17.60;99.90
40454;DHT22;26160;51.858;4.398;2023-05-21T07:03:09;17.70;99.90
40454;DHT22;26160;51.858;4.398;2023-05-21T07:05:35;17.70;99.90
40454;DHT22;26160;51.858;4.398;2023-05-21T07:08:01;17.70;99.90
40454;DHT22;26160;51.858;4.398;2023-05-21T07:10:27;17.60;99.90
40454;DHT22;26160;51.858;4.398;2023-05-21T07:12:53;17.50;99.90
40454;DHT22;26160;51.858;4.398;2023-05-21T07:15:20;17.40;99.90
40454;DHT22;26160;51.858;4.398;2023-05-21T07:17:52;17.40;99.90
40454;DHT22;26160;51.858;4.398;2023-05-21T07:20:18;17.20;99.90
40454;DHT22;26160;51.858;4.398;2023-05-21T07:22:45;17.20;99.90
40454;DHT22;26160;51.858;4.398;2023-05-21T07:25:11;17.20;99.90
40454;DHT22;26160;51.858;4.398;2023-05-21T07:27:37;17.20;99.90
40454;DHT22;26160;51.858;4.398;2023-05-21T07:30:04;17.40;99.90
40454;DHT22;26160;51.858;4.398;2023-05-21T07:32:30;17.50;99.90
40454;DHT22;26160;51.858;4.398;2023-05-21T07:34:59;17.50;99.90
40454;DHT22;26160;51.858;4.398;2023-05-21T07:37:26;17.60;99.90
40454;DHT22;26160;51.858;4.398;2023-05-21T07:39:55;17.80;99.90
40454;DHT22;26160;51.858;4.398;2023-05-21T07:42:24;18.00;99.90
40454;DHT22;26160;51.858;4.398;2023-05-21T07:44:51;18.00;99.90
40454;DHT22;26160;51.858;4.398;2023-05-21T07:47:17;18.00;99.90
40454;DHT22;26160;51.858;4.398;2023-05-21T07:49:43;17.90;99.90
40454;DHT22;26160;51.858;4.398;2023-05-21T07:52:09;17.90;99.90
40454;DHT22;26160;51.858;4.398;2023-05-21T07:54:35;18.00;99.90
40454;DHT22;26160;51.858;4.398;2023-05-21T07:57:02;18.10;99.90
40454;DHT22;26160;51.858;4.398;2023-05-21T07:59:35;18.40;99.90
40454;DHT22;26160;51.858;4.398;2023-05-21T08:02:01;18.60;99.90
40454;DHT22;26160;51.858;4.398;2023-05-21T08:04:27;18.60;99.90
40454;DHT22;26160;51.858;4.398;2023-05-21T08:06:53;18.50;99.90
40454;DHT22;26160;51.858;4.398;2023-05-21T08:09:20;18.50;99.90
40454;DHT22;26160;51.858;4.398;2023-05-21T08:11:46;18.50;99.90
40454;DHT22;26160;51.858;4.398;2023-05-21T08:14:12;18.40;99.90
40454;DHT22;26160;51.858;4.398;2023-05-21T08:16:38;18.30;99.90
40454;DHT22;26160;51.858;4.398;2023-05-21T08:19:04;18.10;99.90
40454;DHT22;26160;51.858;4.398;2023-05-21T08:21:31;18.00;99.90
40454;DHT22;26160;51.858;4.398;2023-05-21T08:23:58;18.00;99.90
40454;DHT22;26160;51.858;4.398;2023-05-21T08:26:25;18.00;99.90
40454;DHT22;26160;51.858;4.398;2023-05-21T08:28:51;18.10;99.90
40454;DHT22;26160;51.858;4.398;2023-05-21T08:31:17;18.00;99.90
40454;DHT22;26160;51.858;4.398;2023-05-21T08:33:51;18.10;99.90
40454;DHT22;26160;51.858;4.398;2023-05-21T08:36:17;18.30;99.90
40454;DHT22;26160;51.858;4.398;2023-05-21T08:38:45;18.50;99.90
40454;DHT22;26160;51.858;4.398;2023-05-21T08:41:11;18.60;99.90
40454;DHT22;26160;51.858;4.398;2023-05-21T08:43:47;18.50;99.90
40454;DHT22;26160;51.858;4.398;2023-05-21T08:46:18;18.60;99.90
40454;DHT22;26160;51.858;4.398;2023-05-21T08:48:46;18.60;99.90
40454;DHT22;26160;51.858;4.398;2023-05-21T08:51:12;18.60;99.90
40454;DHT22;26160;51.858;4.398;2023-05-21T08:53:38;18.80;99.90
40454;DHT22;26160;51.858;4.398;2023-05-21T08:56:05;18.90;99.90
40454;DHT22;26160;51.858;4.398;2023-05-21T08:58:32;19.10;99.90
40454;DHT22;26160;51.858;4.398;2023-05-21T09:00:58;19.40;99.90
40454;DHT22;26160;51.858;4.398;2023-05-21T09:03:25;19.70;99.90
40454;DHT22;26160;51.858;4.398;2023-05-21T09:06:04;19.80;99.90
40454;DHT22;26160;51.858;4.398;2023-05-21T09:08:34;19.60;99.90
40454;DHT22;26160;51.858;4.398;2023-05-21T09:11:00;19.50;99.90
40454;DHT22;26160;51.858;4.398;2023-05-21T09:13:30;19.50;99.90
40454;DHT22;26160;51.858;4.398;2023-05-21T09:15:57;19.90;99.90
40454;DHT22;26160;51.858;4.398;2023-05-21T09:18:24;20.10;99.90
40454;DHT22;26160;51.858;4.398;2023-05-21T09:20:52;20.30;99.90
40454;DHT22;26160;51.858;4.398;2023-05-21T09:23:19;20.70;99.90
40454;DHT22;26160;51.858;4.398;2023-05-21T09:25:46;20.40;99.90
40454;DHT22;26160;51.858;4.398;2023-05-21T09:28:14;20.40;99.90
40454;DHT22;26160;51.858;4.398;2023-05-21T09:30:50;20.20;99.90
40454;DHT22;26160;51.858;4.398;2023-05-21T09:33:25;20.10;99.90
40454;DHT22;26160;51.858;4.398;2023-05-21T09:35:51;20.00;99.90
40454;DHT22;26160;51.858;4.398;2023-05-21T09:38:21;20.10;99.90
40454;DHT22;26160;51.858;4.398;2023-05-21T09:40:47;20.20;99.90
40454;DHT22;26160;51.858;4.398;2023-05-21T09:43:14;20.50;99.90
40454;DHT22;26160;51.858;4.398;2023-05-21T09:45:53;20.90;99.90
40454;DHT22;26160;51.858;4.398;2023-05-21T09:51:15;21.50;99.90
40454;DHT22;26160;51.858;4.398;2023-05-21T09:53:51;21.50;99.90
40454;DHT22;26160;51.858;4.398;2023-05-21T09:56:23;21.70;99.90
40454;DHT22;26160;51.858;4.398;2023-05-21T09:58:54;21.80;99.90
40454;DHT22;26160;51.858;4.398;2023-05-21T10:01:23;21.50;99.90
40454;DHT22;26160;51.858;4.398;2023-05-21T10:03:53;21.50;99.90
40454;DHT22;26160;51.858;4.398;2023-05-21T10:06:27;22.00;99.90
40454;DHT22;26160;51.858;4.398;2023-05-21T10:08:55;22.50;99.90
40454;DHT22;26160;51.858;4.398;2023-05-21T10:11:22;22.60;99.90
40454;DHT22;26160;51.858;4.398;2023-05-21T10:13:54;22.50;99.90
40454;DHT22;26160;51.858;4.398;2023-05-21T10:16:23;22.30;99.90
40454;DHT22;26160;51.858;4.398;2023-05-21T10:18:49;22.30;99.90
40454;DHT22;26160;51.858;4.398;2023-05-21T10:21:16;22.20;99.90
40454;DHT22;26160;51.858;4.398;2023-05-21T10:23:43;22.10;99.90
40454;DHT22;26160;51.858;4.398;2023-05-21T10:26:09;22.60;99.90
40454;DHT22;26160;51.858;4.398;2023-05-21T10:28:37;22.50;99.90
40454;DHT22;26160;51.858;4.398;2023-05-21T10:31:04;22.90;99.90
40454;DHT22;26160;51.858;4.398;2023-05-21T10:33:31;22.90;99.90
40454;DHT22;26160;51.858;4.398;2023-05-21T10:36:01;23.20;99.90
40454;DHT22;26160;51.858;4.398;2023-05-21T10:38:28;23.10;99.90
40454;DHT22;26160;51.858;4.398;2023-05-21T10:40:55;22.70;99.90
40454;DHT22;26160;51.858;4.398;2023-05-21T10:59:45;23.20;99.90
40454;DHT22;26160;51.858;4.398;2023-05-21T11:02:13;23.30;99.90
40454;DHT22;26160;51.858;4.398;2023-05-21T11:04:43;23.20;99.90
40454;DHT22;26160;51.858;4.398;2023-05-21T11:07:12;22.80;99.90
40454;DHT22;26160;51.858;4.398;2023-05-21T11:09:38;22.70;99.90
40454;DHT22;26160;51.858;4.398;2023-05-21T11:12:05;22.80;99.90
40454;DHT22;26160;51.858;4.398;2023-05-21T11:14:38;22.90;99.90
40454;DHT22;26160;51.858;4.398;2023-05-21T11:17:38;23.00;99.90
40454;DHT22;26160;51.858;4.398;2023-05-21T11:20:10;23.10;99.90
40454;DHT22;26160;51.858;4.398;2023-05-21T11:22:37;22.90;99.90
40454;DHT22;26160;51.858;4.398;2023-05-21T11:25:03;23.00;99.90
40454;DHT22;26160;51.858;4.398;2023-05-21T11:27:38;23.00;99.90
40454;DHT22;26160;51.858;4.398;2023-05-21T11:30:05;23.10;99.90
40454;DHT22;26160;51.858;4.398;2023-05-21T11:32:39;23.60;99.90
40454;DHT22;26160;51.858;4.398;2023-05-21T11:35:26;23.70;99.90
40454;DHT22;26160;51.858;4.398;2023-05-21T11:37:53;23.50;99.90
40454;DHT22;26160;51.858;4.398;2023-05-21T11:40:22;23.40;99.90
40454;DHT22;26160;51.858;4.398;2023-05-21T11:42:53;23.50;99.90
40454;DHT22;26160;51.858;4.398;2023-05-21T11:45:20;23.20;99.90
40454;DHT22;26160;51.858;4.398;2023-05-21T11:47:48;22.90;99.90
40454;DHT22;26160;51.858;4.398;2023-05-21T11:50:15;22.40;99.90
40454;DHT22;26160;51.858;4.398;2023-05-21T11:52:42;22.30;99.90
40454;DHT22;26160;51.858;4.398;2023-05-21T11:55:09;22.60;99.90
40454;DHT22;26160;51.858;4.398;2023-05-21T11:57:36;22.40;99.90
40454;DHT22;26160;51.858;4.398;2023-05-21T12:00:03;22.30;99.90
40454;DHT22;26160;51.858;4.398;2023-05-21T12:02:43;22.10;99.90
40454;DHT22;26160;51.858;4.398;2023-05-21T12:05:10;22.20;99.90
40454;DHT22;26160;51.858;4.398;2023-05-21T12:07:37;22.40;99.90
40454;DHT22;26160;51.858;4.398;2023-05-21T12:10:03;22.70;99.90
40454;DHT22;26160;51.858;4.398;2023-05-21T12:12:30;23.10;99.90
40454;DHT22;26160;51.858;4.398;2023-05-21T12:14:57;23.60;99.90
40454;DHT22;26160;51.858;4.398;2023-05-21T12:17:24;23.60;99.90
40454;DHT22;26160;51.858;4.398;2023-05-21T12:19:53;23.80;99.90
40454;DHT22;26160;51.858;4.398;2023-05-21T12:22:19;23.60;99.90
40454;DHT22;26160;51.858;4.398;2023-05-21T12:24:49;23.40;99.90
40454;DHT22;26160;51.858;4.398;2023-05-21T12:27:16;23.20;99.90
40454;DHT22;26160;51.858;4.398;2023-05-21T12:29:44;22.80;99.90
40454;DHT22;26160;51.858;4.398;2023-05-21T12:32:14;22.90;99.90
40454;DHT22;26160;51.858;4.398;2023-05-21T12:34:52;23.20;99.90
40454;DHT22;26160;51.858;4.398;2023-05-21T12:37:29;23.30;99.90
40454;DHT22;26160;51.858;4.398;2023-05-21T12:40:02;23.40;99.90
40454;DHT22;26160;51.858;4.398;2023-05-21T12:42:33;23.40;99.90
40454;DHT22;26160;51.858;4.398;2023-05-21T12:45:07;23.40;99.90
40454;DHT22;26160;51.858;4.398;2023-05-21T12:47:34;23.80;99.90
40454;DHT22;26160;51.858;4.398;2023-05-21T12:50:01;24.10;99.90
40454;DHT22;26160;51.858;4.398;2023-05-21T12:52:28;24.30;99.90
40454;DHT22;26160;51.858;4.398;2023-05-21T12:54:56;24.20;99.90
40454;DHT22;26160;51.858;4.398;2023-05-21T12:59:53;24.00;99.90
40454;DHT22;26160;51.858;4.398;2023-05-21T13:02:30;24.00;99.90
40454;DHT22;26160;51.858;4.398;2023-05-21T13:05:04;23.90;99.90
40454;DHT22;26160;51.858;4.398;2023-05-21T13:07:33;24.00;99.90
40454;DHT22;26160;51.858;4.398;2023-05-21T13:10:06;23.90;99.90
40454;DHT22;26160;51.858;4.398;2023-05-21T13:12:33;23.60;99.90
40454;DHT22;26160;51.858;4.398;2023-05-21T13:15:01;23.50;99.90
40454;DHT22;26160;51.858;4.398;2023-05-21T13:17:29;23.20;99.90
40454;DHT22;26160;51.858;4.398;2023-05-21T13:20:09;23.20;99.90
40454;DHT22;26160;51.858;4.398;2023-05-21T13:22:41;23.40;99.90
40454;DHT22;26160;51.858;4.398;2023-05-21T13:25:08;23.80;99.90
40454;DHT22;26160;51.858;4.398;2023-05-21T13:27:36;23.60;99.90
40454;DHT22;26160;51.858;4.398;2023-05-21T13:30:05;23.50;99.90
40454;DHT22;26160;51.858;4.398;2023-05-21T13:32:31;23.50;99.90
40454;DHT22;26160;51.858;4.398;2023-05-21T13:34:57;23.90;99.90
40454;DHT22;26160;51.858;4.398;2023-05-21T13:37:38;24.10;99.90
40454;DHT22;26160;51.858;4.398;2023-05-21T13:40:07;23.90;99.90
40454;DHT22;26160;51.858;4.398;2023-05-21T13:42:34;23.90;99.90
40454;DHT22;26160;51.858;4.398;2023-05-21T13:45:06;23.90;99.90
40454;DHT22;26160;51.858;4.398;2023-05-21T13:47:32;23.80;99.90
40454;DHT22;26160;51.858;4.398;2023-05-21T13:49:59;23.80;99.90
40454;DHT22;26160;51.858;4.398;2023-05-21T13:52:25;23.90;99.90
40454;DHT22;26160;51.858;4.398;2023-05-21T13:54:51;23.90;99.90
40454;DHT22;26160;51.858;4.398;2023-05-21T13:57:18;23.70;99.90
40454;DHT22;26160;51.858;4.398;2023-05-21T13:59:44;23.50;99.90
40454;DHT22;26160;51.858;4.398;2023-05-21T14:02:10;23.50;99.90
40454;DHT22;26160;51.858;4.398;2023-05-21T14:04:37;23.80;99.90
40454;DHT22;26160;51.858;4.398;2023-05-21T14:07:03;23.70;99.90
40454;DHT22;26160;51.858;4.398;2023-05-21T14:09:29;23.60;99.90
40454;DHT22;26160;51.858;4.398;2023-05-21T14:11:56;23.60;99.90
40454;DHT22;26160;51.858;4.398;2023-05-21T14:14:23;23.60;99.90
40454;DHT22;26160;51.858;4.398;2023-05-21T14:16:50;23.20;99.90
40454;DHT22;26160;51.858;4.398;2023-05-21T14:19:17;23.20;99.90
40454;DHT22;26160;51.858;4.398;2023-05-21T14:21:43;23.40;99.90
40454;DHT22;26160;51.858;4.398;2023-05-21T14:24:09;23.50;99.90
40454;DHT22;26160;51.858;4.398;2023-05-21T14:26:42;23.40;99.90
40454;DHT22;26160;51.858;4.398;2023-05-21T14:29:08;23.60;99.90
40454;DHT22;26160;51.858;4.398;2023-05-21T14:31:35;23.50;99.90
40454;DHT22;26160;51.858;4.398;2023-05-21T14:34:01;23.40;99.90
40454;DHT22;26160;51.858;4.398;2023-05-21T14:36:28;23.30;99.90
40454;DHT22;26160;51.858;4.398;2023-05-21T14:38:55;23.30;99.90
40454;DHT22;26160;51.858;4.398;2023-05-21T14:41:25;23.20;99.90
40454;DHT22;26160;51.858;4.398;2023-05-21T14:43:52;23.20;99.90
40454;DHT22;26160;51.858;4.398;2023-05-21T14:46:18;23.30;99.90
40454;DHT22;26160;51.858;4.398;2023-05-21T14:48:45;23.30;99.90
40454;DHT22;26160;51.858;4.398;2023-05-21T14:51:12;23.30;99.90
40454;DHT22;26160;51.858;4.398;2023-05-21T14:53:38;23.20;99.90
40454;DHT22;26160;51.858;4.398;2023-05-21T14:56:05;23.40;99.90
40454;DHT22;26160;51.858;4.398;2023-05-21T14:58:35;23.50;99.90
40454;DHT22;26160;51.858;4.398;2023-05-21T15:01:01;23.10;99.90
40454;DHT22;26160;51.858;4.398;2023-05-21T15:03:28;22.90;99.90
40454;DHT22;26160;51.858;4.398;2023-05-21T15:05:55;22.60;99.90
40454;DHT22;26160;51.858;4.398;2023-05-21T15:08:21;22.70;99.90
40454;DHT22;26160;51.858;4.398;2023-05-21T15:10:48;22.90;99.90
40454;DHT22;26160;51.858;4.398;2023-05-21T15:13:14;22.80;99.90
40454;DHT22;26160;51.858;4.398;2023-05-21T15:15:40;22.80;99.90
40454;DHT22;26160;51.858;4.398;2023-05-21T15:18:06;22.80;99.90
40454;DHT22;26160;51.858;4.398;2023-05-21T15:20:33;22.80;99.90
40454;DHT22;26160;51.858;4.398;2023-05-21T15:22:59;22.70;99.90
40454;DHT22;26160;51.858;4.398;2023-05-21T15:25:26;22.70;99.90
40454;DHT22;26160;51.858;4.398;2023-05-21T15:27:52;22.70;99.90
40454;DHT22;26160;51.858;4.398;2023-05-21T15:30:18;22.70;99.90
40454;DHT22;26160;51.858;4.398;2023-05-21T15:32:45;22.60;99.90
40454;DHT22;26160;51.858;4.398;2023-05-21T15:35:11;22.60;99.90
40454;DHT22;26160;51.858;4.398;2023-05-21T15:37:40;22.70;99.90
40454;DHT22;26160;51.858;4.398;2023-05-21T15:40:08;22.80;99.90
40454;DHT22;26160;51.858;4.398;2023-05-21T15:42:39;22.80;99.90
40454;DHT22;26160;51.858;4.398;2023-05-21T15:45:06;22.90;99.90
40454;DHT22;26160;51.858;4.398;2023-05-21T15:47:32;22.90;99.90
40454;DHT22;26160;51.858;4.398;2023-05-21T15:50:25;23.00;99.90
40454;DHT22;26160;51.858;4.398;2023-05-21T15:53:11;23.10;99.90
40454;DHT22;26160;51.858;4.398;2023-05-21T15:55:40;23.20;99.90
40454;DHT22;26160;51.858;4.398;2023-05-21T15:58:19;23.00;99.90
40454;DHT22;26160;51.858;4.398;2023-05-21T16:00:57;22.70;99.90
40454;DHT22;26160;51.858;4.398;2023-05-21T16:03:24;22.30;99.90
40454;DHT22;26160;51.858;4.398;2023-05-21T16:05:52;22.20;99.90
40454;DHT22;26160;51.858;4.398;2023-05-21T16:08:18;22.30;99.90
40454;DHT22;26160;51.858;4.398;2023-05-21T16:10:45;22.10;99.90
40454;DHT22;26160;51.858;4.398;2023-05-21T16:13:11;22.20;99.90
40454;DHT22;26160;51.858;4.398;2023-05-21T16:15:38;22.20;99.90
40454;DHT22;26160;51.858;4.398;2023-05-21T16:18:04;22.30;99.90
40454;DHT22;26160;51.858;4.398;2023-05-21T16:20:32;22.40;99.90
40454;DHT22;26160;51.858;4.398;2023-05-21T16:23:00;22.40;99.90
40454;DHT22;26160;51.858;4.398;2023-05-21T16:25:26;22.50;99.90
40454;DHT22;26160;51.858;4.398;2023-05-21T16:27:52;22.60;99.90
40454;DHT22;26160;51.858;4.398;2023-05-21T16:30:18;22.60;99.90
40454;DHT22;26160;51.858;4.398;2023-05-21T16:32:44;22.20;99.90
40454;DHT22;26160;51.858;4.398;2023-05-21T16:35:10;22.10;99.90
40454;DHT22;26160;51.858;4.398;2023-05-21T16:37:37;22.10;99.90
40454;DHT22;26160;51.858;4.398;2023-05-21T16:40:03;22.10;99.90
40454;DHT22;26160;51.858;4.398;2023-05-21T16:42:29;21.90;99.90
40454;DHT22;26160;51.858;4.398;2023-05-21T16:44:55;21.70;99.90
40454;DHT22;26160;51.858;4.398;2023-05-21T16:47:21;21.60;99.90
40454;DHT22;26160;51.858;4.398;2023-05-21T16:49:48;21.60;99.90
40454;DHT22;26160;51.858;4.398;2023-05-21T16:52:14;21.50;99.90
40454;DHT22;26160;51.858;4.398;2023-05-21T16:54:40;21.20;99.90
40454;DHT22;26160;51.858;4.398;2023-05-21T16:57:07;20.90;99.90
40454;DHT22;26160;51.858;4.398;2023-05-21T16:59:33;20.90;99.90
40454;DHT22;26160;51.858;4.398;2023-05-21T17:01:59;20.90;99.90
40454;DHT22;26160;51.858;4.398;2023-05-21T17:04:25;20.90;99.90
40454;DHT22;26160;51.858;4.398;2023-05-21T17:06:52;20.80;99.90
40454;DHT22;26160;51.858;4.398;2023-05-21T17:09:18;20.70;99.90
40454;DHT22;26160;51.858;4.398;2023-05-21T17:11:44;20.50;99.90
40454;DHT22;26160;51.858;4.398;2023-05-21T17:14:10;20.50;99.90
40454;DHT22;26160;51.858;4.398;2023-05-21T17:16:36;20.40;99.90
40454;DHT22;26160;51.858;4.398;2023-05-21T17:19:03;20.40;99.90
40454;DHT22;26160;51.858;4.398;2023-05-21T17:21:29;20.30;99.90
40454;DHT22;26160;51.858;4.398;2023-05-21T17:23:56;20.20;99.90
40454;DHT22;26160;51.858;4.398;2023-05-21T17:26:22;20.20;99.90
40454;DHT22;26160;51.858;4.398;2023-05-21T17:28:48;20.10;99.90
40454;DHT22;26160;51.858;4.398;2023-05-21T17:31:14;20.00;99.90
40454;DHT22;26160;51.858;4.398;2023-05-21T17:33:42;20.00;99.90
40454;DHT22;26160;51.858;4.398;2023-05-21T17:36:09;20.00;99.90
40454;DHT22;26160;51.858;4.398;2023-05-21T17:38:37;19.90;99.90
40454;DHT22;26160;51.858;4.398;2023-05-21T17:41:07;19.70;99.90
40454;DHT22;26160;51.858;4.398;2023-05-21T17:43:35;19.70;99.90
40454;DHT22;26160;51.858;4.398;2023-05-21T17:46:04;19.60;99.90
40454;DHT22;26160;51.858;4.398;2023-05-21T17:48:33;19.50;99.90
40454;DHT22;26160;51.858;4.398;2023-05-21T17:51:01;19.30;99.90
40454;DHT22;26160;51.858;4.398;2023-05-21T17:53:31;19.30;99.90
40454;DHT22;26160;51.858;4.398;2023-05-21T17:55:57;19.40;99.90
40454;DHT22;26160;51.858;4.398;2023-05-21T17:58:23;19.30;99.90
40454;DHT22;26160;51.858;4.398;2023-05-21T18:00:50;19.00;99.90
40454;DHT22;26160;51.858;4.398;2023-05-21T18:03:16;18.90;99.90
40454;DHT22;26160;51.858;4.398;2023-05-21T18:05:42;18.80;99.90
40454;DHT22;26160;51.858;4.398;2023-05-21T18:08:09;18.70;99.90
40454;DHT22;26160;51.858;4.398;2023-05-21T18:10:35;18.60;99.90
40454;DHT22;26160;51.858;4.398;2023-05-21T18:13:01;18.50;99.90
40454;DHT22;26160;51.858;4.398;2023-05-21T18:15:27;18.30;99.90
40454;DHT22;26160;51.858;4.398;2023-05-21T18:17:53;18.10;99.90
40454;DHT22;26160;51.858;4.398;2023-05-21T18:20:20;18.10;99.90
40454;DHT22;26160;51.858;4.398;2023-05-21T18:22:46;18.10;99.90
40454;DHT22;26160;51.858;4.398;2023-05-21T18:25:12;18.00;99.90
40454;DHT22;26160;51.858;4.398;2023-05-21T18:27:38;17.90;99.90
40454;DHT22;26160;51.858;4.398;2023-05-21T18:30:05;17.70;99.90
40454;DHT22;26160;51.858;4.398;2023-05-21T18:32:34;17.70;99.90
40454;DHT22;26160;51.858;4.398;2023-05-21T18:35:13;17.50;99.90
40454;DHT22;26160;51.858;4.398;2023-05-21T18:37:40;17.40;99.90
40454;DHT22;26160;51.858;4.398;2023-05-21T18:40:11;17.40;99.90
40454;DHT22;26160;51.858;4.398;2023-05-21T18:42:37;17.40;99.90
40454;DHT22;26160;51.858;4.398;2023-05-21T18:45:07;18.00;99.90
40454;DHT22;26160;51.858;4.398;2023-05-21T18:47:35;18.00;99.90
40454;DHT22;26160;51.858;4.398;2023-05-21T18:50:01;17.60;99.90
40454;DHT22;26160;51.858;4.398;2023-05-21T18:52:27;17.20;99.90
40454;DHT22;26160;51.858;4.398;2023-05-21T18:54:53;17.00;99.90
40454;DHT22;26160;51.858;4.398;2023-05-21T18:57:19;16.90;99.90
40454;DHT22;26160;51.858;4.398;2023-05-21T18:59:45;16.80;99.90
40454;DHT22;26160;51.858;4.398;2023-05-21T19:02:11;16.70;99.90
40454;DHT22;26160;51.858;4.398;2023-05-21T19:04:38;16.50;99.90
40454;DHT22;26160;51.858;4.398;2023-05-21T19:07:04;16.40;99.90
40454;DHT22;26160;51.858;4.398;2023-05-21T19:09:31;16.40;99.90
40454;DHT22;26160;51.858;4.398;2023-05-21T19:11:57;16.30;99.90
40454;DHT22;26160;51.858;4.398;2023-05-21T19:14:25;16.30;99.90
40454;DHT22;26160;51.858;4.398;2023-05-21T19:16:51;16.30;99.90
40454;DHT22;26160;51.858;4.398;2023-05-21T19:19:17;16.30;99.90
40454;DHT22;26160;51.858;4.398;2023-05-21T19:21:44;16.20;99.90
40454;DHT22;26160;51.858;4.398;2023-05-21T19:24:10;16.20;99.90
40454;DHT22;26160;51.858;4.398;2023-05-21T19:26:36;16.20;99.90
40454;DHT22;26160;51.858;4.398;2023-05-21T19:29:03;16.20;99.90
40454;DHT22;26160;51.858;4.398;2023-05-21T19:31:29;16.10;99.90
40454;DHT22;26160;51.858;4.398;2023-05-21T19:33:55;16.10;99.90
40454;DHT22;26160;51.858;4.398;2023-05-21T19:36:21;16.10;99.90
40454;DHT22;26160;51.858;4.398;2023-05-21T19:38:48;16.00;99.90
40454;DHT22;26160;51.858;4.398;2023-05-21T19:41:15;15.90;99.90
40454;DHT22;26160;51.858;4.398;2023-05-21T19:43:42;15.80;99.90
40454;DHT22;26160;51.858;4.398;2023-05-21T19:46:08;15.80;99.90
40454;DHT22;26160;51.858;4.398;2023-05-21T19:48:35;15.80;99.90
40454;DHT22;26160;51.858;4.398;2023-05-21T19:51:01;15.70;99.90
40454;DHT22;26160;51.858;4.398;2023-05-21T19:53:27;15.70;99.90
40454;DHT22;26160;51.858;4.398;2023-05-21T19:55:53;15.60;99.90
40454;DHT22;26160;51.858;4.398;2023-05-21T19:58:20;15.60;99.90
40454;DHT22;26160;51.858;4.398;2023-05-21T20:00:49;15.60;99.90
40454;DHT22;26160;51.858;4.398;2023-05-21T20:03:16;15.50;99.90
40454;DHT22;26160;51.858;4.398;2023-05-21T20:05:42;15.50;99.90
40454;DHT22;26160;51.858;4.398;2023-05-21T20:08:08;15.50;99.90
40454;DHT22;26160;51.858;4.398;2023-05-21T20:10:34;15.50;99.90
40454;DHT22;26160;51.858;4.398;2023-05-21T20:13:01;15.40;99.90
40454;DHT22;26160;51.858;4.398;2023-05-21T20:15:27;15.40;99.90
40454;DHT22;26160;51.858;4.398;2023-05-21T20:17:54;15.30;99.90
40454;DHT22;26160;51.858;4.398;2023-05-21T20:20:20;15.30;99.90
40454;DHT22;26160;51.858;4.398;2023-05-21T20:22:52;15.20;99.90
40454;DHT22;26160;51.858;4.398;2023-05-21T20:25:19;15.20;99.90
40454;DHT22;26160;51.858;4.398;2023-05-21T20:27:45;15.10;99.90
40454;DHT22;26160;51.858;4.398;2023-05-21T20:30:11;15.10;99.90
40454;DHT22;26160;51.858;4.398;2023-05-21T20:32:38;15.10;99.90
40454;DHT22;26160;51.858;4.398;2023-05-21T20:35:05;15.00;99.90